sensor_id;sensor_type;location;lat;lon;timestamp;pressure;altitude;pressure_sealevel;temperature
68127;BMP180;54931;52.098;21.006;2024-02-21T00:00:40;100663.40;;;3.00
68127;BMP180;54931;52.098;21.006;2024-02-21T00:03:29;100664.20;;;3.00
68127;BMP180;54931;52.098;21.006;2024-02-21T00:05:57;100665.20;;;3.00
68127;BMP180;54931;52.098;21.006;2024-02-21T00:08:25;100669.20;;;3.00
68127;BMP180;54931;52.098;21.006;2024-02-21T00:10:52;100665.80;;;3.02
68127;BMP180;54931;52.098;21.006;2024-02-21T00:13:20;100668.20;;;3.10
68127;BMP180;54931;52.098;21.006;2024-02-21T00:15:48;100666.00;;;3.10
68127;BMP180;54931;52.098;21.006;2024-02-21T00:18:16;100667.20;;;3.10
68127;BMP180;54931;52.098;21.006;2024-02-21T00:20:43;100665.00;;;3.10
68127;BMP180;54931;52.098;21.006;2024-02-21T00:23:11;100662.40;;;3.16
68127;BMP180;54931;52.098;21.006;2024-02-21T00:25:39;100657.60;;;3.20
68127;BMP180;54931;52.098;21.006;2024-02-21T00:28:06;100657.20;;;3.20
68127;BMP180;54931;52.098;21.006;2024-02-21T00:30:34;100652.40;;;3.20
68127;BMP180;54931;52.098;21.006;2024-02-21T00:33:02;100653.80;;;3.20
68127;BMP180;54931;52.098;21.006;2024-02-21T00:35:30;100653.40;;;3.20
68127;BMP180;54931;52.098;21.006;2024-02-21T00:37:57;100652.80;;;3.30
68127;BMP180;54931;52.098;21.006;2024-02-21T00:40:27;100653.80;;;3.30
68127;BMP180;54931;52.098;21.006;2024-02-21T00:42:55;100652.40;;;3.30
68127;BMP180;54931;52.098;21.006;2024-02-21T00:45:22;100652.20;;;3.30
68127;BMP180;54931;52.098;21.006;2024-02-21T00:47:50;100648.60;;;3.30
68127;BMP180;54931;52.098;21.006;2024-02-21T00:50:18;100644.00;;;3.40
68127;BMP180;54931;52.098;21.006;2024-02-21T00:52:46;100646.00;;;3.40
68127;BMP180;54931;52.098;21.006;2024-02-21T00:55:14;100641.00;;;3.40
68127;BMP180;54931;52.098;21.006;2024-02-21T00:57:41;100637.40;;;3.40
68127;BMP180;54931;52.098;21.006;2024-02-21T01:00:12;100639.20;;;3.40
68127;BMP180;54931;52.098;21.006;2024-02-21T01:02:39;100636.20;;;3.48
68127;BMP180;54931;52.098;21.006;2024-02-21T01:05:07;100637.20;;;3.50
68127;BMP180;54931;52.098;21.006;2024-02-21T01:07:35;100640.60;;;3.50
68127;BMP180;54931;52.098;21.006;2024-02-21T01:10:04;100636.60;;;3.50
68127;BMP180;54931;52.098;21.006;2024-02-21T01:12:32;100630.80;;;3.50
68127;BMP180;54931;52.098;21.006;2024-02-21T01:15:00;100626.40;;;3.52
68127;BMP180;54931;52.098;21.006;2024-02-21T01:17:27;100623.20;;;3.50
68127;BMP180;54931;52.098;21.006;2024-02-21T01:19:55;100622.80;;;3.50
68127;BMP180;54931;52.098;21.006;2024-02-21T01:22:23;100624.60;;;3.54
68127;BMP180;54931;52.098;21.006;2024-02-21T01:24:51;100622.40;;;3.56
68127;BMP180;54931;52.098;21.006;2024-02-21T01:27:18;100618.20;;;3.60
68127;BMP180;54931;52.098;21.006;2024-02-21T01:29:46;100615.40;;;3.60
68127;BMP180;54931;52.098;21.006;2024-02-21T01:32:17;100613.00;;;3.60
68127;BMP180;54931;52.098;21.006;2024-02-21T01:34:44;100614.60;;;3.58
68127;BMP180;54931;52.098;21.006;2024-02-21T01:37:12;100605.60;;;3.60
68127;BMP180;54931;52.098;21.006;2024-02-21T01:39:40;100609.80;;;3.60
68127;BMP180;54931;52.098;21.006;2024-02-21T01:42:08;100609.20;;;3.60
68127;BMP180;54931;52.098;21.006;2024-02-21T01:44:36;100606.60;;;3.60
68127;BMP180;54931;52.098;21.006;2024-02-21T01:47:05;100608.40;;;3.60
68127;BMP180;54931;52.098;21.006;2024-02-21T01:49:34;100606.20;;;3.60
68127;BMP180;54931;52.098;21.006;2024-02-21T01:52:03;100605.40;;;3.60
68127;BMP180;54931;52.098;21.006;2024-02-21T01:54:31;100604.20;;;3.60
68127;BMP180;54931;52.098;21.006;2024-02-21T01:57:00;100601.80;;;3.60
68127;BMP180;54931;52.098;21.006;2024-02-21T01:59:29;100597.80;;;3.60
68127;BMP180;54931;52.098;21.006;2024-02-21T02:01:59;100602.20;;;3.60
68127;BMP180;54931;52.098;21.006;2024-02-21T02:04:27;100603.40;;;3.62
68127;BMP180;54931;52.098;21.006;2024-02-21T02:07:00;100601.00;;;3.70
68127;BMP180;54931;52.098;21.006;2024-02-21T02:09:30;100597.20;;;3.70
68127;BMP180;54931;52.098;21.006;2024-02-21T02:11:58;100599.40;;;3.70
68127;BMP180;54931;52.098;21.006;2024-02-21T02:14:26;100599.00;;;3.70
68127;BMP180;54931;52.098;21.006;2024-02-21T02:16:54;100599.80;;;3.70
68127;BMP180;54931;52.098;21.006;2024-02-21T02:19:22;100599.00;;;3.74
68127;BMP180;54931;52.098;21.006;2024-02-21T02:21:54;100598.80;;;3.80
68127;BMP180;54931;52.098;21.006;2024-02-21T02:24:24;100594.20;;;3.80
68127;BMP180;54931;52.098;21.006;2024-02-21T02:26:55;100591.40;;;3.80
68127;BMP180;54931;52.098;21.006;2024-02-21T02:29:23;100585.40;;;3.80
68127;BMP180;54931;52.098;21.006;2024-02-21T02:31:51;100582.40;;;3.82
68127;BMP180;54931;52.098;21.006;2024-02-21T02:34:19;100583.80;;;3.80
68127;BMP180;54931;52.098;21.006;2024-02-21T02:36:47;100587.20;;;3.80
68127;BMP180;54931;52.098;21.006;2024-02-21T02:39:16;100583.60;;;3.82
68127;BMP180;54931;52.098;21.006;2024-02-21T02:41:44;100577.20;;;3.84
68127;BMP180;54931;52.098;21.006;2024-02-21T02:44:12;100574.40;;;3.80
68127;BMP180;54931;52.098;21.006;2024-02-21T02:46:41;100572.00;;;3.84
68127;BMP180;54931;52.098;21.006;2024-02-21T02:49:09;100570.00;;;3.80
68127;BMP180;54931;52.098;21.006;2024-02-21T02:51:41;100572.20;;;3.80
68127;BMP180;54931;52.098;21.006;2024-02-21T02:54:11;100571.60;;;3.80
68127;BMP180;54931;52.098;21.006;2024-02-21T02:56:39;100571.00;;;3.80
68127;BMP180;54931;52.098;21.006;2024-02-21T02:59:07;100568.00;;;3.80
68127;BMP180;54931;52.098;21.006;2024-02-21T03:01:34;100572.60;;;3.80
68127;BMP180;54931;52.098;21.006;2024-02-21T03:04:03;100569.60;;;3.80
68127;BMP180;54931;52.098;21.006;2024-02-21T03:06:31;100570.00;;;3.80
68127;BMP180;54931;52.098;21.006;2024-02-21T03:08:59;100574.20;;;3.80
68127;BMP180;54931;52.098;21.006;2024-02-21T03:11:27;100578.80;;;3.80
68127;BMP180;54931;52.098;21.006;2024-02-21T03:13:56;100580.40;;;3.80
68127;BMP180;54931;52.098;21.006;2024-02-21T03:16:24;100577.00;;;3.80
68127;BMP180;54931;52.098;21.006;2024-02-21T03:18:53;100577.60;;;3.80
68127;BMP180;54931;52.098;21.006;2024-02-21T03:21:20;100579.60;;;3.86
68127;BMP180;54931;52.098;21.006;2024-02-21T03:23:49;100581.40;;;3.88
68127;BMP180;54931;52.098;21.006;2024-02-21T03:26:16;100581.80;;;3.90
68127;BMP180;54931;52.098;21.006;2024-02-21T03:28:44;100585.80;;;3.88
68127;BMP180;54931;52.098;21.006;2024-02-21T03:31:15;100572.40;;;3.86
68127;BMP180;54931;52.098;21.006;2024-02-21T03:33:43;100574.00;;;3.80
68127;BMP180;54931;52.098;21.006;2024-02-21T03:36:14;100577.60;;;3.80
68127;BMP180;54931;52.098;21.006;2024-02-21T03:38:43;100578.00;;;3.72
68127;BMP180;54931;52.098;21.006;2024-02-21T03:41:11;100576.60;;;3.70
68127;BMP180;54931;52.098;21.006;2024-02-21T03:43:38;100573.80;;;3.70
68127;BMP180;54931;52.098;21.006;2024-02-21T03:46:07;100570.60;;;3.70
68127;BMP180;54931;52.098;21.006;2024-02-21T03:48:36;100566.60;;;3.70
68127;BMP180;54931;52.098;21.006;2024-02-21T03:51:05;100568.20;;;3.70
68127;BMP180;54931;52.098;21.006;2024-02-21T03:53:33;100572.20;;;3.70
68127;BMP180;54931;52.098;21.006;2024-02-21T03:56:03;100572.40;;;3.70
68127;BMP180;54931;52.098;21.006;2024-02-21T03:58:31;100574.20;;;3.66
68127;BMP180;54931;52.098;21.006;2024-02-21T04:01:03;100576.80;;;3.60
68127;BMP180;54931;52.098;21.006;2024-02-21T04:03:31;100577.00;;;3.60
68127;BMP180;54931;52.098;21.006;2024-02-21T04:06:00;100577.00;;;3.60
68127;BMP180;54931;52.098;21.006;2024-02-21T04:08:28;100578.00;;;3.60
68127;BMP180;54931;52.098;21.006;2024-02-21T04:10:56;100571.20;;;3.60
68127;BMP180;54931;52.098;21.006;2024-02-21T04:13:45;100566.80;;;3.60
68127;BMP180;54931;52.098;21.006;2024-02-21T04:16:18;100567.60;;;3.60
68127;BMP180;54931;52.098;21.006;2024-02-21T04:19:06;100566.40;;;3.60
68127;BMP180;54931;52.098;21.006;2024-02-21T04:21:35;100562.40;;;3.60
68127;BMP180;54931;52.098;21.006;2024-02-21T04:24:03;100565.20;;;3.60
68127;BMP180;54931;52.098;21.006;2024-02-21T04:26:33;100564.00;;;3.60
68127;BMP180;54931;52.098;21.006;2024-02-21T04:29:01;100561.00;;;3.60
68127;BMP180;54931;52.098;21.006;2024-02-21T04:31:29;100559.60;;;3.60
68127;BMP180;54931;52.098;21.006;2024-02-21T04:33:59;100557.80;;;3.60
68127;BMP180;54931;52.098;21.006;2024-02-21T04:36:27;100554.60;;;3.60
68127;BMP180;54931;52.098;21.006;2024-02-21T04:38:55;100552.20;;;3.60
68127;BMP180;54931;52.098;21.006;2024-02-21T04:41:23;100547.60;;;3.60
68127;BMP180;54931;52.098;21.006;2024-02-21T04:43:51;100550.00;;;3.60
68127;BMP180;54931;52.098;21.006;2024-02-21T04:46:18;100550.00;;;3.60
68127;BMP180;54931;52.098;21.006;2024-02-21T04:48:46;100551.80;;;3.58
68127;BMP180;54931;52.098;21.006;2024-02-21T04:51:14;100554.20;;;3.52
68127;BMP180;54931;52.098;21.006;2024-02-21T04:53:41;100548.00;;;3.50
68127;BMP180;54931;52.098;21.006;2024-02-21T04:56:10;100547.20;;;3.50
68127;BMP180;54931;52.098;21.006;2024-02-21T04:58:39;100546.20;;;3.50
68127;BMP180;54931;52.098;21.006;2024-02-21T05:01:07;100543.80;;;3.50
68127;BMP180;54931;52.098;21.006;2024-02-21T05:03:35;100548.40;;;3.50
68127;BMP180;54931;52.098;21.006;2024-02-21T05:06:03;100544.80;;;3.50
68127;BMP180;54931;52.098;21.006;2024-02-21T05:08:31;100547.40;;;3.50
68127;BMP180;54931;52.098;21.006;2024-02-21T05:10:59;100544.40;;;3.50
68127;BMP180;54931;52.098;21.006;2024-02-21T05:13:26;100542.80;;;3.50
68127;BMP180;54931;52.098;21.006;2024-02-21T05:15:54;100545.60;;;3.50
68127;BMP180;54931;52.098;21.006;2024-02-21T05:18:22;100545.40;;;3.50
68127;BMP180;54931;52.098;21.006;2024-02-21T05:20:50;100546.60;;;3.50
68127;BMP180;54931;52.098;21.006;2024-02-21T05:23:17;100539.20;;;3.50
68127;BMP180;54931;52.098;21.006;2024-02-21T05:25:45;100543.00;;;3.50
68127;BMP180;54931;52.098;21.006;2024-02-21T05:28:13;100538.00;;;3.50
68127;BMP180;54931;52.098;21.006;2024-02-21T05:30:41;100541.40;;;3.50
68127;BMP180;54931;52.098;21.006;2024-02-21T05:33:10;100539.40;;;3.50
68127;BMP180;54931;52.098;21.006;2024-02-21T05:35:38;100541.20;;;3.50
68127;BMP180;54931;52.098;21.006;2024-02-21T05:38:06;100534.40;;;3.50
68127;BMP180;54931;52.098;21.006;2024-02-21T05:40:39;100538.40;;;3.50
68127;BMP180;54931;52.098;21.006;2024-02-21T05:43:08;100536.20;;;3.50
68127;BMP180;54931;52.098;21.006;2024-02-21T05:45:37;100538.00;;;3.50
68127;BMP180;54931;52.098;21.006;2024-02-21T05:48:05;100533.60;;;3.50
68127;BMP180;54931;52.098;21.006;2024-02-21T05:50:33;100532.60;;;3.50
68127;BMP180;54931;52.098;21.006;2024-02-21T05:53:01;100530.40;;;3.50
68127;BMP180;54931;52.098;21.006;2024-02-21T05:55:29;100532.20;;;3.50
68127;BMP180;54931;52.098;21.006;2024-02-21T05:57:56;100528.20;;;3.50
68127;BMP180;54931;52.098;21.006;2024-02-21T06:00:24;100529.20;;;3.52
68127;BMP180;54931;52.098;21.006;2024-02-21T06:02:52;100531.80;;;3.60
68127;BMP180;54931;52.098;21.006;2024-02-21T06:05:20;100529.60;;;3.60
68127;BMP180;54931;52.098;21.006;2024-02-21T06:07:50;100528.80;;;3.60
68127;BMP180;54931;52.098;21.006;2024-02-21T06:10:17;100529.20;;;3.60
68127;BMP180;54931;52.098;21.006;2024-02-21T06:12:45;100520.60;;;3.60
68127;BMP180;54931;52.098;21.006;2024-02-21T06:15:13;100515.00;;;3.70
68127;BMP180;54931;52.098;21.006;2024-02-21T06:17:41;100521.20;;;3.70
68127;BMP180;54931;52.098;21.006;2024-02-21T06:20:09;100524.60;;;3.80
68127;BMP180;54931;52.098;21.006;2024-02-21T06:22:37;100526.60;;;3.80
68127;BMP180;54931;52.098;21.006;2024-02-21T06:25:05;100527.80;;;3.90
68127;BMP180;54931;52.098;21.006;2024-02-21T06:27:33;100528.00;;;4.00
68127;BMP180;54931;52.098;21.006;2024-02-21T06:30:01;100524.80;;;4.04
68127;BMP180;54931;52.098;21.006;2024-02-21T06:32:30;100534.00;;;4.10
68127;BMP180;54931;52.098;21.006;2024-02-21T06:34:58;100529.60;;;4.20
68127;BMP180;54931;52.098;21.006;2024-02-21T06:37:26;100529.80;;;4.30
68127;BMP180;54931;52.098;21.006;2024-02-21T06:39:54;100530.20;;;4.40
68127;BMP180;54931;52.098;21.006;2024-02-21T06:42:21;100528.80;;;4.40
68127;BMP180;54931;52.098;21.006;2024-02-21T06:44:52;100529.80;;;4.50
68127;BMP180;54931;52.098;21.006;2024-02-21T06:47:19;100532.20;;;4.60
68127;BMP180;54931;52.098;21.006;2024-02-21T06:49:51;100531.00;;;4.64
68127;BMP180;54931;52.098;21.006;2024-02-21T06:52:19;100532.20;;;4.72
68127;BMP180;54931;52.098;21.006;2024-02-21T06:54:51;100538.40;;;4.90
68127;BMP180;54931;52.098;21.006;2024-02-21T06:57:19;100542.60;;;4.96
68127;BMP180;54931;52.098;21.006;2024-02-21T06:59:47;100542.40;;;5.00
68127;BMP180;54931;52.098;21.006;2024-02-21T07:02:15;100545.60;;;5.06
68127;BMP180;54931;52.098;21.006;2024-02-21T07:04:43;100538.60;;;5.10
68127;BMP180;54931;52.098;21.006;2024-02-21T07:07:11;100537.60;;;5.10
68127;BMP180;54931;52.098;21.006;2024-02-21T07:09:39;100534.80;;;5.20
68127;BMP180;54931;52.098;21.006;2024-02-21T07:12:08;100541.00;;;5.20
68127;BMP180;54931;52.098;21.006;2024-02-21T07:14:36;100542.40;;;5.28
68127;BMP180;54931;52.098;21.006;2024-02-21T07:17:04;100538.40;;;5.30
68127;BMP180;54931;52.098;21.006;2024-02-21T07:19:32;100529.80;;;5.30
68127;BMP180;54931;52.098;21.006;2024-02-21T07:22:03;100537.80;;;5.40
68127;BMP180;54931;52.098;21.006;2024-02-21T07:24:31;100536.40;;;5.50
68127;BMP180;54931;52.098;21.006;2024-02-21T07:26:59;100537.80;;;5.50
68127;BMP180;54931;52.098;21.006;2024-02-21T07:29:32;100530.20;;;5.60
68127;BMP180;54931;52.098;21.006;2024-02-21T07:31:59;100535.40;;;5.60
68127;BMP180;54931;52.098;21.006;2024-02-21T07:34:28;100530.40;;;5.70
68127;BMP180;54931;52.098;21.006;2024-02-21T07:36:56;100524.00;;;5.70
68127;BMP180;54931;52.098;21.006;2024-02-21T07:39:23;100529.60;;;5.80
68127;BMP180;54931;52.098;21.006;2024-02-21T07:41:51;100527.00;;;5.80
68127;BMP180;54931;52.098;21.006;2024-02-21T07:44:19;100523.80;;;5.80
68127;BMP180;54931;52.098;21.006;2024-02-21T07:46:47;100516.60;;;5.80
68127;BMP180;54931;52.098;21.006;2024-02-21T07:49:15;100512.60;;;5.80
68127;BMP180;54931;52.098;21.006;2024-02-21T07:51:43;100514.40;;;5.80
68127;BMP180;54931;52.098;21.006;2024-02-21T07:54:11;100508.40;;;5.80
68127;BMP180;54931;52.098;21.006;2024-02-21T07:56:40;100506.60;;;5.84
68127;BMP180;54931;52.098;21.006;2024-02-21T07:59:08;100508.20;;;5.84
68127;BMP180;54931;52.098;21.006;2024-02-21T08:01:35;100505.80;;;5.90
68127;BMP180;54931;52.098;21.006;2024-02-21T08:04:03;100501.40;;;5.90
68127;BMP180;54931;52.098;21.006;2024-02-21T08:06:32;100495.60;;;6.00
68127;BMP180;54931;52.098;21.006;2024-02-21T08:09:00;100487.80;;;6.00
68127;BMP180;54931;52.098;21.006;2024-02-21T08:11:28;100485.60;;;6.10
68127;BMP180;54931;52.098;21.006;2024-02-21T08:13:56;100485.40;;;6.30
68127;BMP180;54931;52.098;21.006;2024-02-21T08:16:26;100478.60;;;6.32
68127;BMP180;54931;52.098;21.006;2024-02-21T08:18:54;100481.20;;;6.42
68127;BMP180;54931;52.098;21.006;2024-02-21T08:21:22;100477.20;;;6.52
68127;BMP180;54931;52.098;21.006;2024-02-21T08:23:50;100467.00;;;6.64
68127;BMP180;54931;52.098;21.006;2024-02-21T08:26:19;100469.80;;;6.80
68127;BMP180;54931;52.098;21.006;2024-02-21T08:28:47;100468.40;;;6.82
68127;BMP180;54931;52.098;21.006;2024-02-21T08:31:21;100468.00;;;6.90
68127;BMP180;54931;52.098;21.006;2024-02-21T08:33:50;100466.00;;;6.90
68127;BMP180;54931;52.098;21.006;2024-02-21T08:36:19;100465.60;;;6.90
68127;BMP180;54931;52.098;21.006;2024-02-21T08:38:47;100461.80;;;6.94
68127;BMP180;54931;52.098;21.006;2024-02-21T08:41:15;100464.40;;;7.00
68127;BMP180;54931;52.098;21.006;2024-02-21T08:43:44;100463.40;;;7.02
68127;BMP180;54931;52.098;21.006;2024-02-21T08:46:12;100462.20;;;7.18
68127;BMP180;54931;52.098;21.006;2024-02-21T08:48:40;100457.00;;;7.20
68127;BMP180;54931;52.098;21.006;2024-02-21T08:51:08;100454.80;;;7.34
68127;BMP180;54931;52.098;21.006;2024-02-21T08:53:36;100454.40;;;7.40
68127;BMP180;54931;52.098;21.006;2024-02-21T08:56:05;100457.60;;;7.58
68127;BMP180;54931;52.098;21.006;2024-02-21T08:58:36;100456.60;;;7.80
68127;BMP180;54931;52.098;21.006;2024-02-21T09:01:04;100457.20;;;7.90
68127;BMP180;54931;52.098;21.006;2024-02-21T09:03:33;100457.60;;;7.98
68127;BMP180;54931;52.098;21.006;2024-02-21T09:06:06;100455.00;;;8.00
68127;BMP180;54931;52.098;21.006;2024-02-21T09:08:34;100452.80;;;8.10
68127;BMP180;54931;52.098;21.006;2024-02-21T09:11:02;100447.20;;;8.10
68127;BMP180;54931;52.098;21.006;2024-02-21T09:13:31;100446.20;;;8.20
68127;BMP180;54931;52.098;21.006;2024-02-21T09:15:58;100447.00;;;8.30
68127;BMP180;54931;52.098;21.006;2024-02-21T09:18:27;100447.80;;;8.30
68127;BMP180;54931;52.098;21.006;2024-02-21T09:20:55;100448.20;;;8.30
68127;BMP180;54931;52.098;21.006;2024-02-21T09:23:26;100443.80;;;8.40
68127;BMP180;54931;52.098;21.006;2024-02-21T09:25:54;100440.60;;;8.40
68127;BMP180;54931;52.098;21.006;2024-02-21T09:28:23;100438.20;;;8.40
68127;BMP180;54931;52.098;21.006;2024-02-21T09:30:51;100439.60;;;8.40
68127;BMP180;54931;52.098;21.006;2024-02-21T09:33:18;100438.20;;;8.50
68127;BMP180;54931;52.098;21.006;2024-02-21T09:35:46;100440.00;;;8.50
68127;BMP180;54931;52.098;21.006;2024-02-21T09:38:16;100442.00;;;8.40
68127;BMP180;54931;52.098;21.006;2024-02-21T09:40:44;100439.00;;;8.30
68127;BMP180;54931;52.098;21.006;2024-02-21T09:43:17;100436.20;;;8.24
68127;BMP180;54931;52.098;21.006;2024-02-21T09:45:46;100434.60;;;8.20
68127;BMP180;54931;52.098;21.006;2024-02-21T09:48:47;100443.40;;;8.20
68127;BMP180;54931;52.098;21.006;2024-02-21T09:51:21;100435.20;;;8.20
68127;BMP180;54931;52.098;21.006;2024-02-21T09:53:53;100432.40;;;8.10
68127;BMP180;54931;52.098;21.006;2024-02-21T09:56:21;100433.60;;;8.10
68127;BMP180;54931;52.098;21.006;2024-02-21T09:58:49;100430.00;;;8.10
68127;BMP180;54931;52.098;21.006;2024-02-21T10:01:17;100427.80;;;8.10
68127;BMP180;54931;52.098;21.006;2024-02-21T10:03:45;100426.20;;;8.18
68127;BMP180;54931;52.098;21.006;2024-02-21T10:06:12;100419.60;;;8.20
68127;BMP180;54931;52.098;21.006;2024-02-21T10:08:40;100418.60;;;8.20
68127;BMP180;54931;52.098;21.006;2024-02-21T10:11:09;100420.20;;;8.30
68127;BMP180;54931;52.098;21.006;2024-02-21T10:13:37;100417.00;;;8.40
68127;BMP180;54931;52.098;21.006;2024-02-21T10:16:08;100414.40;;;8.40
68127;BMP180;54931;52.098;21.006;2024-02-21T10:18:36;100409.00;;;8.44
68127;BMP180;54931;52.098;21.006;2024-02-21T10:21:06;100406.00;;;8.50
68127;BMP180;54931;52.098;21.006;2024-02-21T10:23:48;100412.80;;;8.50
68127;BMP180;54931;52.098;21.006;2024-02-21T10:26:18;100403.80;;;8.40
68127;BMP180;54931;52.098;21.006;2024-02-21T10:28:48;100404.20;;;8.40
68127;BMP180;54931;52.098;21.006;2024-02-21T10:31:24;100406.60;;;8.40
68127;BMP180;54931;52.098;21.006;2024-02-21T10:33:59;100398.80;;;8.40
68127;BMP180;54931;52.098;21.006;2024-02-21T10:36:30;100401.80;;;8.40
68127;BMP180;54931;52.098;21.006;2024-02-21T10:38:58;100402.00;;;8.40
68127;BMP180;54931;52.098;21.006;2024-02-21T10:41:26;100398.60;;;8.40
68127;BMP180;54931;52.098;21.006;2024-02-21T10:43:56;100397.00;;;8.40
68127;BMP180;54931;52.098;21.006;2024-02-21T10:46:25;100396.00;;;8.40
68127;BMP180;54931;52.098;21.006;2024-02-21T10:49:10;100391.40;;;8.36
68127;BMP180;54931;52.098;21.006;2024-02-21T10:51:43;100385.40;;;8.30
68127;BMP180;54931;52.098;21.006;2024-02-21T10:54:39;100384.20;;;8.26
68127;BMP180;54931;52.098;21.006;2024-02-21T10:57:13;100384.40;;;8.20
68127;BMP180;54931;52.098;21.006;2024-02-21T10:59:44;100381.80;;;8.24
68127;BMP180;54931;52.098;21.006;2024-02-21T11:02:14;100377.20;;;8.30
68127;BMP180;54931;52.098;21.006;2024-02-21T11:04:43;100374.40;;;8.34
68127;BMP180;54931;52.098;21.006;2024-02-21T11:07:13;100374.40;;;8.30
68127;BMP180;54931;52.098;21.006;2024-02-21T11:09:53;100367.00;;;8.30
68127;BMP180;54931;52.098;21.006;2024-02-21T11:12:25;100362.00;;;8.30
68127;BMP180;54931;52.098;21.006;2024-02-21T11:15:08;100356.20;;;8.30
68127;BMP180;54931;52.098;21.006;2024-02-21T11:17:36;100353.40;;;8.30
68127;BMP180;54931;52.098;21.006;2024-02-21T11:20:14;100350.20;;;8.20
68127;BMP180;54931;52.098;21.006;2024-02-21T11:22:43;100350.00;;;8.18
68127;BMP180;54931;52.098;21.006;2024-02-21T11:25:11;100345.20;;;8.20
68127;BMP180;54931;52.098;21.006;2024-02-21T11:27:45;100347.40;;;8.20
68127;BMP180;54931;52.098;21.006;2024-02-21T11:30:13;100348.60;;;8.20
68127;BMP180;54931;52.098;21.006;2024-02-21T11:32:50;100339.80;;;8.10
68127;BMP180;54931;52.098;21.006;2024-02-21T11:35:20;100336.60;;;8.10
68127;BMP180;54931;52.098;21.006;2024-02-21T11:37:48;100333.40;;;8.00
68127;BMP180;54931;52.098;21.006;2024-02-21T11:40:17;100334.40;;;7.90
68127;BMP180;54931;52.098;21.006;2024-02-21T11:42:45;100330.40;;;7.90
68127;BMP180;54931;52.098;21.006;2024-02-21T11:45:15;100335.00;;;7.90
68127;BMP180;54931;52.098;21.006;2024-02-21T11:47:43;100330.40;;;7.80
68127;BMP180;54931;52.098;21.006;2024-02-21T11:50:11;100332.00;;;7.80
68127;BMP180;54931;52.098;21.006;2024-02-21T11:52:39;100327.40;;;7.70
68127;BMP180;54931;52.098;21.006;2024-02-21T11:55:08;100332.20;;;7.70
68127;BMP180;54931;52.098;21.006;2024-02-21T11:57:37;100332.20;;;7.60
68127;BMP180;54931;52.098;21.006;2024-02-21T12:00:19;100324.00;;;7.56
68127;BMP180;54931;52.098;21.006;2024-02-21T12:02:52;100326.80;;;7.50
68127;BMP180;54931;52.098;21.006;2024-02-21T12:05:20;100319.00;;;7.40
68127;BMP180;54931;52.098;21.006;2024-02-21T12:07:48;100309.60;;;7.32
68127;BMP180;54931;52.098;21.006;2024-02-21T12:10:16;100311.60;;;7.20
68127;BMP180;54931;52.098;21.006;2024-02-21T12:12:44;100311.60;;;7.20
68127;BMP180;54931;52.098;21.006;2024-02-21T12:15:13;100311.20;;;7.14
68127;BMP180;54931;52.098;21.006;2024-02-21T12:17:41;100307.80;;;7.10
68127;BMP180;54931;52.098;21.006;2024-02-21T12:20:10;100301.80;;;7.12
68127;BMP180;54931;52.098;21.006;2024-02-21T12:22:39;100298.80;;;7.16
68127;BMP180;54931;52.098;21.006;2024-02-21T12:25:22;100301.00;;;7.20
68127;BMP180;54931;52.098;21.006;2024-02-21T12:27:50;100292.80;;;7.16
68127;BMP180;54931;52.098;21.006;2024-02-21T12:30:19;100296.20;;;7.10
68127;BMP180;54931;52.098;21.006;2024-02-21T12:32:47;100295.60;;;7.10
68127;BMP180;54931;52.098;21.006;2024-02-21T12:35:16;100295.20;;;7.10
68127;BMP180;54931;52.098;21.006;2024-02-21T12:37:45;100294.40;;;7.10
68127;BMP180;54931;52.098;21.006;2024-02-21T12:40:14;100292.00;;;7.10
68127;BMP180;54931;52.098;21.006;2024-02-21T12:42:42;100286.40;;;7.10
68127;BMP180;54931;52.098;21.006;2024-02-21T12:45:10;100282.40;;;7.10
68127;BMP180;54931;52.098;21.006;2024-02-21T12:47:39;100279.80;;;7.10
68127;BMP180;54931;52.098;21.006;2024-02-21T12:50:08;100277.40;;;7.10
68127;BMP180;54931;52.098;21.006;2024-02-21T12:52:36;100273.60;;;7.10
68127;BMP180;54931;52.098;21.006;2024-02-21T12:55:05;100271.20;;;7.10
68127;BMP180;54931;52.098;21.006;2024-02-21T12:57:33;100273.00;;;7.10
68127;BMP180;54931;52.098;21.006;2024-02-21T13:00:01;100270.40;;;7.10
68127;BMP180;54931;52.098;21.006;2024-02-21T13:02:30;100263.20;;;7.00
68127;BMP180;54931;52.098;21.006;2024-02-21T13:04:57;100265.00;;;7.00
68127;BMP180;54931;52.098;21.006;2024-02-21T13:07:25;100258.40;;;7.00
68127;BMP180;54931;52.098;21.006;2024-02-21T13:09:53;100260.80;;;7.00
68127;BMP180;54931;52.098;21.006;2024-02-21T13:12:22;100259.00;;;7.00
68127;BMP180;54931;52.098;21.006;2024-02-21T13:14:50;100259.00;;;7.00
68127;BMP180;54931;52.098;21.006;2024-02-21T13:17:18;100256.80;;;7.00
68127;BMP180;54931;52.098;21.006;2024-02-21T13:19:46;100256.40;;;7.00
68127;BMP180;54931;52.098;21.006;2024-02-21T13:22:14;100260.00;;;7.00
68127;BMP180;54931;52.098;21.006;2024-02-21T13:24:42;100257.20;;;7.00
68127;BMP180;54931;52.098;21.006;2024-02-21T13:27:09;100249.60;;;7.00
68127;BMP180;54931;52.098;21.006;2024-02-21T13:29:38;100246.60;;;7.00
68127;BMP180;54931;52.098;21.006;2024-02-21T13:32:07;100238.00;;;6.98
68127;BMP180;54931;52.098;21.006;2024-02-21T13:34:35;100232.60;;;6.90
68127;BMP180;54931;52.098;21.006;2024-02-21T13:37:03;100230.00;;;6.90
68127;BMP180;54931;52.098;21.006;2024-02-21T13:39:32;100219.40;;;6.90
68127;BMP180;54931;52.098;21.006;2024-02-21T13:42:03;100222.20;;;6.90
68127;BMP180;54931;52.098;21.006;2024-02-21T13:44:33;100215.40;;;6.90
68127;BMP180;54931;52.098;21.006;2024-02-21T13:47:02;100213.40;;;6.90
68127;BMP180;54931;52.098;21.006;2024-02-21T13:49:31;100207.60;;;6.80
68127;BMP180;54931;52.098;21.006;2024-02-21T13:51:58;100200.60;;;6.80
68127;BMP180;54931;52.098;21.006;2024-02-21T13:54:27;100198.40;;;6.80
68127;BMP180;54931;52.098;21.006;2024-02-21T13:56:55;100191.40;;;6.76
68127;BMP180;54931;52.098;21.006;2024-02-21T13:59:23;100178.80;;;6.70
68127;BMP180;54931;52.098;21.006;2024-02-21T14:01:54;100179.20;;;6.70
68127;BMP180;54931;52.098;21.006;2024-02-21T14:04:22;100174.60;;;6.70
68127;BMP180;54931;52.098;21.006;2024-02-21T14:06:50;100166.60;;;6.70